Time,TemperatureF,DewpointF,PressureIn,WindDirection,WindDirectionDegrees,WindSpeedMPH,WindSpeedGustMPH,Humidity,HourlyPrecipIn,Conditions,Clouds,dailyrainin,SoftwareType,DateUTC
2013-01-24 00:00:00,50.8,41.0,30.19,ENE,78,7.0,7.0,69,0.00,,,0.04,Wunderground v.1.13,2013-01-24 08:00:00,
2013-01-24 00:09:00,51.0,41.2,30.19,East,100,7.0,9.0,69,0.00,,,0.04,Wunderground v.1.13,2013-01-24 08:09:00,
2013-01-24 00:15:00,51.0,41.2,30.18,ENE,78,7.0,7.0,69,0.00,,,0.00,Wunderground v.1.13,2013-01-24 08:15:00,
2013-01-24 00:20:00,50.8,41.0,30.18,East,81,7.0,7.0,69,0.00,,,0.00,Wunderground v.1.13,2013-01-24 08:20:00,
2013-01-24 00:30:00,50.8,41.4,30.17,ENE,76,7.0,7.0,70,0.00,,,0.00,Wunderground v.1.13,2013-01-24 08:30:00,
2013-01-24 00:35:00,50.8,41.4,30.18,East,82,6.0,6.0,70,0.00,,,0.00,Wunderground v.1.13,2013-01-24 08:35:00,
2013-01-24 00:49:00,51.0,41.2,30.17,ENE,67,3.0,6.0,69,0.00,,,0.00,Wunderground v.1.13,2013-01-24 08:49:00,
2013-01-24 00:55:00,51.0,41.6,30.17,ENE,72,4.0,5.0,70,0.00,,,0.00,Wunderground v.1.13,2013-01-24 08:55:00,
2013-01-24 01:00:00,50.8,41.7,30.17,ENE,72,3.0,5.0,71,0.00,,,0.00,Wunderground v.1.13,2013-01-24 09:00:00,
2013-01-24 01:05:00,50.5,41.8,30.16,ENE,73,3.0,3.0,72,0.00,,,0.00,Wunderground v.1.13,2013-01-24 09:05:00,
2013-01-24 01:15:00,50.2,41.9,30.17,ENE,73,6.0,6.0,73,0.00,,,0.00,Wunderground v.1.13,2013-01-24 09:15:00,
2013-01-24 01:20:00,50.2,41.9,30.17,East,82,8.0,8.0,73,0.00,,,0.00,Wunderground v.1.13,2013-01-24 09:20:00,
2013-01-24 01:30:00,50.5,41.8,30.17,East,86,9.0,11.0,72,0.00,,,0.00,Wunderground v.1.13,2013-01-24 09:30:00,
2013-01-24 01:40:00,50.4,42.1,30.17,ENE,78,9.0,11.0,73,0.00,,,0.00,Wunderground v.1.13,2013-01-24 09:40:00,
2013-01-24 01:45:00,50.4,41.7,30.17,East,84,9.0,9.0,72,0.00,,,0.00,Wunderground v.1.13,2013-01-24 09:45:00,
2013-01-24 01:55:00,50.5,41.8,30.16,East,82,9.0,12.0,72,0.00,,,0.00,Wunderground v.1.13,2013-01-24 09:55:00,
2013-01-24 02:00:00,50.7,42.4,30.16,East,84,10.0,11.0,73,0.00,,,0.00,Wunderground v.1.13,2013-01-24 10:00:00,
2013-01-24 02:05:00,50.7,42.4,30.16,East,81,10.0,10.0,73,0.00,,,0.00,Wunderground v.1.13,2013-01-24 10:05:00,
2013-01-24 02:15:00,50.8,42.1,30.16,East,88,9.0,9.0,72,0.00,,,0.00,Wunderground v.1.13,2013-01-24 10:15:00,
2013-01-24 02:25:00,51.1,42.4,30.17,East,88,9.0,9.0,72,0.00,,,0.00,Wunderground v.1.13,2013-01-24 10:25:00,
2013-01-24 02:30:00,51.4,42.3,30.17,ESE,102,10.0,10.0,71,0.00,,,0.00,Wunderground v.1.13,2013-01-24 10:30:00,
2013-01-24 02:40:00,51.9,42.4,30.17,East,98,8.0,8.0,70,0.00,,,0.00,Wunderground v.1.13,2013-01-24 10:40:00,
2013-01-24 02:45:00,52.0,42.5,30.18,East,99,8.0,9.0,70,0.00,,,0.00,Wunderground v.1.13,2013-01-24 10:45:00,
2013-01-24 02:54:00,52.3,42.8,30.18,East,94,7.0,7.0,70,0.00,,,0.00,Wunderground v.1.13,2013-01-24 10:54:00,
2013-01-24 03:00:00,52.3,42.8,30.18,East,101,6.0,10.0,70,0.00,,,0.00,Wunderground v.1.13,2013-01-24 11:00:00,
2013-01-24 03:05:00,52.2,42.7,30.18,ENE,77,6.0,9.0,70,0.00,,,0.00,Wunderground v.1.13,2013-01-24 11:05:00,
2013-01-24 03:15:00,52.0,42.9,30.19,East,96,6.0,6.0,71,0.00,,,0.00,Wunderground v.1.13,2013-01-24 11:15:00,
2013-01-24 03:25:00,52.0,42.9,30.19,East,98,6.0,9.0,71,0.00,,,0.00,Wunderground v.1.13,2013-01-24 11:25:00,
2013-01-24 03:30:00,52.0,42.9,30.19,East,95,6.0,9.0,71,0.00,,,0.00,Wunderground v.1.13,2013-01-24 11:30:00,
2013-01-24 03:40:00,51.9,42.8,30.19,East,88,6.0,9.0,71,0.00,,,0.00,Wunderground v.1.13,2013-01-24 11:40:00,
2013-01-24 03:45:00,51.9,43.2,30.19,East,88,5.0,9.0,72,0.00,,,0.00,Wunderground v.1.13,2013-01-24 11:45:00,
2013-01-24 03:55:00,52.0,42.9,30.19,East,92,5.0,9.0,71,0.00,,,0.00,Wunderground v.1.13,2013-01-24 11:55:00,
2013-01-24 04:05:00,52.2,42.7,30.18,East,84,6.0,6.0,70,0.00,,,0.00,Wunderground v.1.13,2013-01-24 12:05:00,
2013-01-24 04:10:00,52.3,42.4,30.19,East,98,5.0,9.0,69,0.00,,,0.00,Wunderground v.1.13,2013-01-24 12:10:00,
2013-01-24 04:15:00,52.6,42.3,30.20,East,94,5.0,9.0,68,0.00,,,0.00,Wunderground v.1.13,2013-01-24 12:15:00,
2013-01-24 04:25:00,52.6,42.7,30.20,East,96,5.0,5.0,69,0.00,,,0.00,Wunderground v.1.13,2013-01-24 12:25:00,
2013-01-24 04:35:00,52.8,42.9,30.20,East,84,5.0,9.0,69,0.00,,,0.00,Wunderground v.1.13,2013-01-24 12:35:00,
2013-01-24 04:44:00,52.8,42.9,30.20,East,101,5.0,9.0,69,0.00,,,0.00,Wunderground v.1.13,2013-01-24 12:44:00,
2013-01-24 04:50:00,52.9,42.6,30.20,East,96,5.0,9.0,68,0.00,,,0.00,Wunderground v.1.13,2013-01-24 12:50:00,
2013-01-24 04:55:00,52.9,42.6,30.21,East,86,4.0,9.0,68,0.00,,,0.00,Wunderground v.1.13,2013-01-24 12:55:00,
2013-01-24 05:05:00,52.9,42.6,30.21,East,90,4.0,9.0,68,0.00,,,0.00,Wunderground v.1.13,2013-01-24 13:05:00,
2013-01-24 05:15:00,52.8,42.5,30.21,ESE,105,4.0,9.0,68,0.00,,,0.00,Wunderground v.1.13,2013-01-24 13:15:00,
2013-01-24 05:25:00,52.3,43.2,30.21,East,88,5.0,5.0,71,0.00,,,0.00,Wunderground v.1.13,2013-01-24 13:25:00,
2013-01-24 05:30:00,52.3,43.2,30.21,East,98,5.0,9.0,71,0.00,,,0.00,Wunderground v.1.13,2013-01-24 13:30:00,
2013-01-24 05:40:00,51.9,43.2,30.21,East,92,5.0,9.0,72,0.00,,,0.00,Wunderground v.1.13,2013-01-24 13:40:00,
2013-01-24 05:45:00,51.6,42.9,30.21,East,80,5.0,9.0,72,0.00,,,0.00,Wunderground v.1.13,2013-01-24 13:45:00,
2013-01-24 05:50:00,51.4,42.7,30.22,East,80,5.0,5.0,72,0.00,,,0.00,Wunderground v.1.13,2013-01-24 13:50:00,
2013-01-24 06:00:00,51.6,42.5,30.22,East,92,4.0,4.0,71,0.00,,,0.00,Wunderground v.1.13,2013-01-24 14:00:00,
2013-01-24 06:05:00,51.6,42.9,30.22,East,92,5.0,5.0,72,0.00,,,0.00,Wunderground v.1.13,2013-01-24 14:05:00,
2013-01-24 06:10:00,51.7,42.6,30.22,East,94,5.0,6.0,71,0.00,,,0.00,Wunderground v.1.13,2013-01-24 14:10:00,
2013-01-24 06:20:00,51.9,42.8,30.22,East,83,5.0,5.0,71,0.00,,,0.00,Wunderground v.1.13,2013-01-24 14:20:00,
2013-01-24 06:30:00,51.9,42.8,30.23,East,83,5.0,5.0,71,0.00,,,0.00,Wunderground v.1.13,2013-01-24 14:30:00,
2013-01-24 06:35:00,51.7,42.6,30.23,East,82,4.0,8.0,71,0.00,,,0.00,Wunderground v.1.13,2013-01-24 14:35:00,
2013-01-24 06:45:00,51.6,42.9,30.23,East,82,4.0,8.0,72,0.00,,,0.00,Wunderground v.1.13,2013-01-24 14:45:00,
2013-01-24 06:50:00,51.4,42.7,30.23,East,82,4.0,8.0,72,0.00,,,0.00,Wunderground v.1.13,2013-01-24 14:50:00,
2013-01-24 06:55:00,51.4,42.7,30.23,East,83,5.0,5.0,72,0.00,,,0.00,Wunderground v.1.13,2013-01-24 14:55:00,
2013-01-24 07:05:00,51.4,42.7,30.23,East,83,5.0,8.0,72,0.00,,,0.00,Wunderground v.1.13,2013-01-24 15:05:00,
2013-01-24 07:10:00,51.4,43.0,30.24,East,83,5.0,5.0,73,0.00,,,0.00,Wunderground v.1.13,2013-01-24 15:10:00,
2013-01-24 07:20:00,51.7,42.6,30.23,ESE,106,4.0,8.0,71,0.00,,,0.00,Wunderground v.1.13,2013-01-24 15:20:00,
2013-01-24 07:25:00,51.7,42.6,30.23,East,90,4.0,8.0,71,0.00,,,0.00,Wunderground v.1.13,2013-01-24 15:25:00,
2013-01-24 07:30:00,51.9,42.8,30.23,East,90,4.0,4.0,71,0.00,,,0.00,Wunderground v.1.13,2013-01-24 15:30:00,
2013-01-24 07:35:00,52.0,42.5,30.23,SE,126,2.0,8.0,70,0.00,,,0.00,Wunderground v.1.13,2013-01-24 15:35:00,
2013-01-24 07:45:00,52.3,42.0,30.23,East,89,3.0,8.0,68,0.00,,,0.00,Wunderground v.1.13,2013-01-24 15:45:00,
2013-01-24 07:50:00,52.3,42.8,30.24,East,89,3.0,8.0,70,0.00,,,0.00,Wunderground v.1.13,2013-01-24 15:50:00,
2013-01-24 08:00:00,52.2,42.7,30.24,East,89,4.0,8.0,70,0.00,,,0.00,Wunderground v.1.13,2013-01-24 16:00:00,
2013-01-24 08:05:00,52.2,42.7,30.24,East,89,4.0,8.0,70,0.00,,,0.00,Wunderground v.1.13,2013-01-24 16:05:00,
2013-01-24 08:15:00,52.2,43.1,30.24,East,89,4.0,8.0,71,0.00,,,0.00,Wunderground v.1.13,2013-01-24 16:15:00,
2013-01-24 08:20:00,52.2,43.1,30.25,East,89,5.0,8.0,71,0.00,,,0.00,Wunderground v.1.13,2013-01-24 16:20:00,
2013-01-24 08:30:00,52.2,43.4,30.25,East,84,6.0,6.0,72,0.00,,,0.00,Wunderground v.1.13,2013-01-24 16:30:00,
2013-01-24 08:35:00,52.3,43.2,30.25,ENE,76,6.0,8.0,71,0.00,,,0.00,Wunderground v.1.13,2013-01-24 16:35:00,
2013-01-24 08:45:00,52.3,43.9,30.25,East,82,8.0,8.0,73,0.00,,,0.00,Wunderground v.1.13,2013-01-24 16:45:00,
2013-01-24 08:50:00,52.3,44.3,30.25,East,82,7.0,10.0,74,0.00,,,0.00,Wunderground v.1.13,2013-01-24 16:50:00,
2013-01-24 08:59:00,52.0,45.0,30.25,ENE,57,6.0,6.0,77,0.00,,,0.00,Wunderground v.1.13,2013-01-24 16:59:00,
2013-01-24 09:05:00,51.9,45.6,30.26,East,92,7.0,7.0,79,0.00,,,0.00,Wunderground v.1.13,2013-01-24 17:05:00,
2013-01-24 09:10:00,51.7,45.7,30.26,ENE,74,7.0,7.0,80,0.00,,,0.00,Wunderground v.1.13,2013-01-24 17:10:00,
2013-01-24 09:20:00,51.4,46.4,30.26,ENE,75,8.0,8.0,83,0.00,,,0.00,Wunderground v.1.13,2013-01-24 17:20:00,
2013-01-24 09:25:00,51.3,46.3,30.26,East,84,8.0,9.0,83,0.00,,,0.00,Wunderground v.1.13,2013-01-24 17:25:00,
2013-01-24 09:35:00,51.6,46.6,30.26,ENE,77,9.0,9.0,83,0.00,,,0.00,Wunderground v.1.13,2013-01-24 17:35:00,
2013-01-24 09:45:00,52.0,46.7,30.26,East,84,8.0,8.0,82,0.00,,,0.00,Wunderground v.1.13,2013-01-24 17:45:00,
2013-01-24 09:55:00,52.5,46.5,30.26,East,90,6.0,6.0,80,0.00,,,0.00,Wunderground v.1.13,2013-01-24 17:55:00,
2013-01-24 10:00:00,52.8,46.8,30.26,East,80,5.0,5.0,80,0.00,,,0.00,Wunderground v.1.13,2013-01-24 18:00:00,
2013-01-24 10:10:00,53.2,47.2,30.26,ENE,75,3.0,8.0,80,0.00,,,0.00,Wunderground v.1.13,2013-01-24 18:10:00,
2013-01-24 10:20:00,53.8,47.1,30.27,ENE,76,2.0,8.0,78,0.00,,,0.00,Wunderground v.1.13,2013-01-24 18:20:00,
2013-01-24 10:30:00,54.1,47.0,30.27,ENE,66,3.0,8.0,77,0.00,,,0.00,Wunderground v.1.13,2013-01-24 18:30:00,
2013-01-24 10:35:00,54.5,47.4,30.26,ENE,73,3.0,8.0,77,0.00,,,0.00,Wunderground v.1.13,2013-01-24 18:35:00,
2013-01-24 10:45:00,54.7,46.9,30.27,ENE,73,2.0,2.0,75,0.00,,,0.00,Wunderground v.1.13,2013-01-24 18:45:00,
2013-01-24 10:50:00,55.0,47.6,30.27,ENE,67,1.0,8.0,76,0.00,,,0.00,Wunderground v.1.13,2013-01-24 18:50:00,
2013-01-24 11:00:00,55.3,47.5,30.26,ENE,67,2.0,2.0,75,0.00,,,0.00,Wunderground v.1.13,2013-01-24 19:00:00,
2013-01-24 11:10:00,55.9,47.7,30.27,ENE,71,1.0,8.0,74,0.00,,,0.00,Wunderground v.1.13,2013-01-24 19:10:00,
2013-01-24 11:20:00,55.9,47.7,30.27,ENE,71,1.0,1.0,74,0.00,,,0.00,Wunderground v.1.13,2013-01-24 19:20:00,
2013-01-24 11:25:00,55.7,47.5,30.27,ENE,71,0.0,8.0,74,0.00,,,0.00,Wunderground v.1.13,2013-01-24 19:25:00,
2013-01-24 11:35:00,55.7,47.2,30.27,ENE,71,0.0,8.0,73,0.00,,,0.00,Wunderground v.1.13,2013-01-24 19:35:00,
2013-01-24 11:45:00,56.0,47.8,30.27,ENE,71,0.0,8.0,74,0.00,,,0.00,Wunderground v.1.13,2013-01-24 19:45:00,
2013-01-24 11:55:00,56.3,48.5,30.27,ENE,71,0.0,8.0,75,0.00,,,0.00,Wunderground v.1.13,2013-01-24 19:55:00,
2013-01-24 12:05:00,56.0,47.8,30.26,ENE,71,0.0,8.0,74,0.00,,,0.00,Wunderground v.1.13,2013-01-24 20:05:00,
2013-01-24 12:10:00,56.0,47.8,30.26,ENE,71,0.0,8.0,74,0.00,,,0.00,Wunderground v.1.13,2013-01-24 20:10:00,
2013-01-24 12:20:00,55.9,48.4,30.26,ENE,71,1.0,1.0,76,0.00,,,0.00,Wunderground v.1.13,2013-01-24 20:20:00,
2013-01-24 12:25:00,55.7,47.9,30.26,ENE,71,1.0,1.0,75,0.00,,,0.00,Wunderground v.1.13,2013-01-24 20:25:00,
2013-01-24 12:35:00,55.7,48.2,30.26,ENE,71,1.0,1.0,76,0.00,,,0.00,Wunderground v.1.13,2013-01-24 20:35:00,
2013-01-24 12:40:00,55.7,48.6,30.26,ENE,71,1.0,1.0,77,0.00,,,0.00,Wunderground v.1.13,2013-01-24 20:40:00,
2013-01-24 12:50:00,55.9,47.7,30.26,SE,137,0.0,8.0,74,0.00,,,0.00,Wunderground v.1.13,2013-01-24 20:50:00,
2013-01-24 12:55:00,56.0,47.8,30.26,SE,137,0.0,8.0,74,0.00,,,0.00,Wunderground v.1.13,2013-01-24 20:55:00,
2013-01-24 13:05:00,55.4,48.0,30.26,SE,140,0.0,0.0,76,0.00,,,0.00,Wunderground v.1.13,2013-01-24 21:05:00,
2013-01-24 13:15:00,55.0,47.6,30.26,SSE,161,0.0,0.0,76,0.00,,,0.00,Wunderground v.1.13,2013-01-24 21:15:00,
2013-01-24 13:24:00,54.7,46.9,30.26,South,178,0.0,0.0,75,0.00,,,0.00,Wunderground v.1.13,2013-01-24 21:24:00,
2013-01-24 13:30:00,54.5,47.1,30.26,SE,140,1.0,1.0,76,0.00,,,0.00,Wunderground v.1.13,2013-01-24 21:30:00,
2013-01-24 13:35:00,54.4,47.3,30.26,SE,139,1.0,1.0,77,0.00,,,0.00,Wunderground v.1.13,2013-01-24 21:35:00,
2013-01-24 13:40:00,54.2,47.1,30.26,SE,140,1.0,1.0,77,0.00,,,0.00,Wunderground v.1.13,2013-01-24 21:40:00,
2013-01-24 13:50:00,53.6,47.6,30.26,SE,142,0.0,4.0,80,0.00,,,0.00,Wunderground v.1.13,2013-01-24 21:50:00,
2013-01-24 14:00:00,53.3,48.3,30.26,SE,142,0.0,4.0,83,0.00,,,0.00,Wunderground v.1.13,2013-01-24 22:00:00,
2013-01-24 14:05:00,52.9,48.2,30.26,SE,142,0.0,4.0,84,0.00,,,0.00,Wunderground v.1.13,2013-01-24 22:05:00,
2013-01-24 14:15:00,52.6,48.5,30.26,SE,142,0.0,4.0,86,0.00,,,0.00,Wunderground v.1.13,2013-01-24 22:15:00,
2013-01-24 14:20:00,52.5,48.4,30.26,SE,142,0.0,4.0,86,0.00,,,0.00,Wunderground v.1.13,2013-01-24 22:20:00,
2013-01-24 14:30:00,52.3,48.2,30.26,SE,142,0.0,4.0,86,0.00,,,0.00,Wunderground v.1.13,2013-01-24 22:30:00,
2013-01-24 14:40:00,52.8,48.7,30.26,SE,142,0.0,4.0,86,0.00,,,0.00,Wunderground v.1.13,2013-01-24 22:40:00,
2013-01-24 14:45:00,53.1,48.7,30.26,SE,142,0.0,4.0,85,0.00,,,0.00,Wunderground v.1.13,2013-01-24 22:45:00,
2013-01-24 14:55:00,52.6,48.5,30.26,SE,142,0.0,4.0,86,0.00,,,0.00,Wunderground v.1.13,2013-01-24 22:55:00,
2013-01-24 15:05:00,53.1,49.0,30.25,SE,142,0.0,4.0,86,0.00,,,0.00,Wunderground v.1.13,2013-01-24 23:05:00,
2013-01-24 15:10:00,53.2,49.1,30.25,SE,142,0.0,4.0,86,0.00,,,0.00,Wunderground v.1.13,2013-01-24 23:10:00,
2013-01-24 15:20:00,53.3,48.9,30.25,ENE,57,0.0,4.0,85,0.00,,,0.00,Wunderground v.1.13,2013-01-24 23:20:00,
2013-01-24 15:30:00,53.6,49.2,30.25,NE,49,0.0,4.0,85,0.00,,,0.00,Wunderground v.1.13,2013-01-24 23:30:00,
2013-01-24 15:40:00,53.3,49.2,30.25,NE,49,0.0,4.0,86,0.00,,,0.00,Wunderground v.1.13,2013-01-24 23:40:00,
2013-01-24 15:45:00,53.3,49.5,30.25,NE,49,0.0,4.0,87,0.00,,,0.00,Wunderground v.1.13,2013-01-24 23:45:00,
2013-01-24 15:50:00,53.2,49.4,30.25,NE,49,0.0,4.0,87,0.00,,,0.00,Wunderground v.1.13,2013-01-24 23:50:00,
2013-01-24 15:59:00,53.1,49.3,30.25,NE,49,0.0,4.0,87,0.00,,,0.00,Wunderground v.1.13,2013-01-24 23:59:00,
2013-01-24 16:05:00,53.2,49.4,30.25,NE,49,0.0,4.0,87,0.00,,,0.00,Wunderground v.1.13,2013-01-25 00:05:00,
2013-01-24 16:15:00,53.2,49.4,30.25,NE,49,0.0,4.0,87,0.00,,,0.00,Wunderground v.1.13,2013-01-25 00:15:00,
2013-01-24 16:20:00,53.2,49.4,30.25,NE,49,0.0,4.0,87,0.00,,,0.00,Wunderground v.1.13,2013-01-25 00:20:00,
2013-01-24 16:30:00,53.1,49.6,30.25,NE,49,0.0,4.0,88,0.00,,,0.00,Wunderground v.1.13,2013-01-25 00:30:00,
2013-01-24 16:40:00,52.8,49.3,30.25,NE,49,0.0,4.0,88,0.00,,,0.00,Wunderground v.1.13,2013-01-25 00:40:00,
2013-01-24 16:45:00,52.6,49.4,30.25,NE,49,0.0,4.0,89,0.00,,,0.00,Wunderground v.1.13,2013-01-25 00:45:00,
2013-01-24 16:55:00,52.5,49.4,30.25,NE,49,0.0,4.0,89,0.00,,,0.00,Wunderground v.1.13,2013-01-25 00:55:00,
2013-01-24 17:00:00,52.3,49.5,30.25,NE,49,0.0,4.0,90,0.00,,,0.00,Wunderground v.1.13,2013-01-25 01:00:00,
2013-01-24 17:05:00,52.2,49.4,30.26,NE,49,0.0,4.0,90,0.00,,,0.00,Wunderground v.1.13,2013-01-25 01:05:00,
2013-01-24 17:15:00,52.0,49.5,30.26,NE,49,0.0,4.0,91,0.00,,,0.00,Wunderground v.1.13,2013-01-25 01:15:00,
2013-01-24 17:20:00,51.9,49.4,30.26,NE,49,0.0,4.0,91,0.00,,,0.00,Wunderground v.1.13,2013-01-25 01:20:00,
2013-01-24 17:29:00,51.7,49.2,30.26,NE,49,0.0,4.0,91,0.00,,,0.00,Wunderground v.1.13,2013-01-25 01:29:00,
2013-01-24 17:35:00,51.6,49.1,30.26,NE,49,0.0,4.0,91,0.00,,,0.00,Wunderground v.1.13,2013-01-25 01:35:00,
2013-01-24 17:45:00,51.6,49.1,30.26,NE,49,0.0,4.0,91,0.00,,,0.00,Wunderground v.1.13,2013-01-25 01:45:00,
2013-01-24 17:50:00,51.6,49.1,30.27,NE,49,0.0,4.0,91,0.00,,,0.00,Wunderground v.1.13,2013-01-25 01:50:00,
2013-01-24 18:00:00,51.4,48.9,30.27,NE,49,0.0,4.0,91,0.00,,,0.00,Wunderground v.1.13,2013-01-25 02:00:00,
2013-01-24 18:05:00,51.3,49.1,30.27,NE,49,0.0,4.0,92,0.00,,,0.00,Wunderground v.1.13,2013-01-25 02:05:00,
2013-01-24 18:14:00,51.1,48.9,30.27,NE,49,0.0,4.0,92,0.00,,,0.01,Wunderground v.1.13,2013-01-25 02:14:00,
2013-01-24 18:20:00,51.1,48.9,30.27,NE,49,0.0,4.0,92,0.00,,,0.01,Wunderground v.1.13,2013-01-25 02:20:00,
2013-01-24 18:25:00,51.0,49.0,30.27,NE,49,0.0,4.0,93,0.00,,,0.01,Wunderground v.1.13,2013-01-25 02:25:00,
2013-01-24 18:35:00,51.0,49.0,30.27,NE,49,0.0,4.0,93,0.00,,,0.01,Wunderground v.1.13,2013-01-25 02:35:00,
2013-01-24 18:45:00,51.0,49.0,30.28,NE,49,0.0,4.0,93,0.00,,,0.01,Wunderground v.1.13,2013-01-25 02:45:00,
2013-01-24 18:50:00,51.0,49.0,30.28,NE,49,0.0,4.0,93,0.00,,,0.01,Wunderground v.1.13,2013-01-25 02:50:00,
2013-01-24 18:59:00,51.0,49.3,30.28,NE,49,0.0,4.0,94,0.00,,,0.01,Wunderground v.1.13,2013-01-25 02:59:00,
2013-01-24 19:05:00,51.0,49.3,30.28,NE,49,0.0,4.0,94,0.00,,,0.01,Wunderground v.1.13,2013-01-25 03:05:00,
2013-01-24 19:15:00,50.8,49.1,30.28,NE,49,0.0,4.0,94,0.00,,,0.01,Wunderground v.1.13,2013-01-25 03:15:00,
2013-01-24 19:30:00,51.0,49.3,30.28,NE,49,0.0,4.0,94,0.00,,,0.01,Wunderground v.1.13,2013-01-25 03:30:00,
2013-01-24 19:35:00,51.0,49.3,30.28,NE,49,0.0,4.0,94,0.00,,,0.01,Wunderground v.1.13,2013-01-25 03:35:00,
2013-01-24 19:45:00,51.0,49.3,30.28,NE,49,0.0,4.0,94,0.00,,,0.01,Wunderground v.1.13,2013-01-25 03:45:00,
2013-01-24 19:55:00,51.1,49.4,30.29,NE,49,0.0,4.0,94,0.00,,,0.01,Wunderground v.1.13,2013-01-25 03:55:00,
2013-01-24 20:00:00,51.0,49.3,30.29,NE,49,0.0,4.0,94,0.00,,,0.01,Wunderground v.1.13,2013-01-25 04:00:00,
2013-01-24 20:15:00,50.7,49.0,30.29,NE,49,0.0,4.0,94,0.00,,,0.01,Wunderground v.1.13,2013-01-25 04:15:00,
2013-01-24 20:20:00,50.7,49.0,30.29,NE,49,0.0,4.0,94,0.00,,,0.01,Wunderground v.1.13,2013-01-25 04:20:00,
2013-01-24 20:30:00,50.7,49.3,30.29,NE,49,0.0,4.0,95,0.00,,,0.01,Wunderground v.1.13,2013-01-25 04:30:00,
2013-01-24 20:35:00,50.7,49.3,30.29,NE,49,0.0,4.0,95,0.00,,,0.01,Wunderground v.1.13,2013-01-25 04:35:00,
2013-01-24 20:40:00,50.7,49.3,30.29,NE,49,0.0,4.0,95,0.00,,,0.01,Wunderground v.1.13,2013-01-25 04:40:00,
2013-01-24 20:50:00,50.7,49.3,30.29,NE,49,0.0,4.0,95,0.00,,,0.01,Wunderground v.1.13,2013-01-25 04:50:00,
2013-01-24 20:55:00,50.5,49.1,30.29,NE,49,0.0,4.0,95,0.00,,,0.02,Wunderground v.1.13,2013-01-25 04:55:00,
2013-01-24 21:05:00,50.4,49.0,30.30,NE,49,0.0,4.0,95,0.00,,,0.02,Wunderground v.1.13,2013-01-25 05:05:00,
2013-01-24 21:09:00,50.2,48.8,30.30,NE,49,0.0,4.0,95,0.00,,,0.02,Wunderground v.1.13,2013-01-25 05:09:00,
2013-01-24 21:15:00,50.2,48.8,30.29,NE,49,0.0,4.0,95,0.00,,,0.02,Wunderground v.1.13,2013-01-25 05:15:00,
2013-01-24 21:25:00,50.1,48.7,30.29,North,360,0.0,4.0,95,0.00,,,0.02,Wunderground v.1.13,2013-01-25 05:25:00,
2013-01-24 21:29:00,50.1,48.7,30.29,North,360,0.0,4.0,95,0.00,,,0.02,Wunderground v.1.13,2013-01-25 05:29:00,
2013-01-24 21:35:00,50.1,48.7,30.29,North,360,0.0,4.0,95,0.00,,,0.02,Wunderground v.1.13,2013-01-25 05:35:00,
2013-01-24 21:40:00,50.1,48.7,30.29,North,360,0.0,4.0,95,0.00,,,0.02,Wunderground v.1.13,2013-01-25 05:40:00,
2013-01-24 21:50:00,49.9,48.8,30.29,NNW,331,0.0,4.0,96,0.00,,,0.02,Wunderground v.1.13,2013-01-25 05:50:00,
2013-01-24 22:00:00,49.9,48.8,30.30,NNW,331,0.0,4.0,96,0.00,,,0.02,Wunderground v.1.13,2013-01-25 06:00:00,
2013-01-24 22:10:00,49.9,48.8,30.30,NNW,331,0.0,4.0,96,0.00,,,0.03,Wunderground v.1.13,2013-01-25 06:10:00,
2013-01-24 22:15:00,49.9,48.8,30.29,NNW,331,0.0,4.0,96,0.00,,,0.03,Wunderground v.1.13,2013-01-25 06:15:00,
2013-01-24 22:25:00,49.9,48.8,30.29,NNW,331,0.0,4.0,96,0.00,,,0.03,Wunderground v.1.13,2013-01-25 06:25:00,
2013-01-24 22:30:00,49.9,48.8,30.29,NNW,331,0.0,4.0,96,0.00,,,0.04,Wunderground v.1.13,2013-01-25 06:30:00,
2013-01-24 22:39:00,49.8,48.7,30.29,NNW,331,0.0,4.0,96,0.00,,,0.04,Wunderground v.1.13,2013-01-25 06:39:00,
2013-01-24 22:45:00,49.8,48.7,30.29,NNW,331,0.0,4.0,96,0.00,,,0.04,Wunderground v.1.13,2013-01-25 06:45:00,
2013-01-24 22:50:00,49.8,48.7,30.29,NNW,331,0.0,4.0,96,0.00,,,0.04,Wunderground v.1.13,2013-01-25 06:50:00,
2013-01-24 23:00:00,49.8,48.7,30.29,NNW,331,0.0,4.0,96,0.00,,,0.04,Wunderground v.1.13,2013-01-25 07:00:00,
2013-01-24 23:10:00,49.8,48.7,30.29,North,355,0.0,4.0,96,0.00,,,0.04,Wunderground v.1.13,2013-01-25 07:10:00,
2013-01-24 23:20:00,49.9,48.8,30.29,NE,40,0.0,4.0,96,0.00,,,0.05,Wunderground v.1.13,2013-01-25 07:20:00,
2013-01-24 23:25:00,49.9,48.8,30.29,NE,40,0.0,4.0,96,0.00,,,0.05,Wunderground v.1.13,2013-01-25 07:25:00,
2013-01-24 23:30:00,50.1,49.0,30.29,NE,47,1.0,4.0,96,0.00,,,0.05,Wunderground v.1.13,2013-01-25 07:30:00,
2013-01-24 23:40:00,50.1,49.0,30.29,ENE,71,3.0,4.0,96,0.00,,,0.05,Wunderground v.1.13,2013-01-25 07:40:00,
2013-01-24 23:50:00,50.2,49.1,30.29,ENE,73,4.0,4.0,96,0.00,,,0.05,Wunderground v.1.13,2013-01-25 07:50:00,